Y89 weather

Kalkaska City Airport
Kalkaska, Michigan, United States

Public forecast

Using degrees Fahrenheit for public forecast. Weather courtesy of forecast.io.

Closest aviation weather report (METAR) to Kalkaska City Airport

Closest report is Antrim County Airport, 15.8 nm (29.3 km) N. Retrieved 2019/10/16 18:36 UTC (0 seconds ago):

KACB 161836Z AUTO 01004KT 3SM UP BKN010 OVC014 08/07 A2971 RMK AO2 T00800065

Closest aviation forecast (TAF) to Kalkaska City Airport

Closest forecast is Cherry Capital Airport, 16.2 nm (30.0 km) W. Retrieved 2019/10/16 18:51 UTC (0 seconds ago):

TAF KTVC 161749Z 1618/1718 34017G30KT P6SM -SHRA BKN015 OVC027 FM162000 34015G30KT P6SM -SHRA SCT015 OVC027 FM162300 33013G27KT P6SM -SHRA OVC026 FM170200 33013KT 6SM -SHRA OVC025 FM171000 33010KT P6SM OVC024